Time;durP1;ratioP1;P1;durP2;ratioP2;P2;SDS_P1;SDS_P2;PMS_P1;PMS_P2;Temp;Humidity;BMP_temperature;BMP_pressure;BME280_temperature;BME280_humidity;BME280_pressure;Samples;Min_cycle;Max_cycle;Signal;HPM_P1;HPM_P2
2023/07/23 00:01:49;;;;;;;6.70;3.40;;;19.70;99.90;;;;;;5060319;28;20216;-61
2023/07/23 00:04:17;;;;;;;11.15;3.25;;;19.70;99.90;;;;;;5066696;28;20254;-61
2023/07/23 00:06:45;;;;;;;10.95;3.53;;;19.70;99.90;;;;;;5054813;28;20255;-61
2023/07/23 00:09:13;;;;;;;7.90;3.17;;;19.70;99.90;;;;;;5065479;28;20263;-61
2023/07/23 00:11:42;;;;;;;4.53;3.10;;;19.60;99.90;;;;;;5061524;28;20201;-61
2023/07/23 00:14:11;;;;;;;4.63;3.35;;;19.50;99.90;;;;;;5057337;28;20304;-61
2023/07/23 00:16:38;;;;;;;3.78;2.85;;;19.50;99.90;;;;;;5067571;28;20675;-61
2023/07/23 00:19:07;;;;;;;4.55;2.90;;;19.40;99.90;;;;;;5056897;28;20195;-61
2023/07/23 00:21:35;;;;;;;5.63;3.17;;;19.40;99.90;;;;;;5062017;28;20734;-61
2023/07/23 00:24:04;;;;;;;3.80;2.90;;;19.30;99.90;;;;;;5064617;28;20224;-61
2023/07/23 00:26:32;;;;;;;6.03;3.15;;;19.30;99.90;;;;;;5054681;28;20599;-61
2023/07/23 00:29:01;;;;;;;7.65;3.75;;;19.20;99.90;;;;;;5066905;28;20253;-61
2023/07/23 00:31:29;;;;;;;5.10;3.20;;;19.20;99.90;;;;;;5061220;28;20283;-61
2023/07/23 00:33:58;;;;;;;5.25;3.03;;;19.10;99.90;;;;;;5062961;28;20282;-61
2023/07/23 00:36:26;;;;;;;4.05;3.00;;;19.00;99.90;;;;;;5071449;28;20208;-62
2023/07/23 00:38:54;;;;;;;5.13;2.88;;;19.00;99.90;;;;;;5042744;28;20247;-61
2023/07/23 00:41:22;;;;;;;4.97;2.67;;;18.90;99.90;;;;;;5067928;28;20209;-61
2023/07/23 00:43:50;;;;;;;6.47;2.83;;;18.90;99.90;;;;;;5066888;28;20225;-61
2023/07/23 00:46:19;;;;;;;5.57;3.15;;;18.80;99.90;;;;;;5059978;28;20200;-61
2023/07/23 00:48:47;;;;;;;6.43;3.00;;;18.80;99.90;;;;;;5071869;28;20278;-61
2023/07/23 00:51:15;;;;;;;3.28;2.85;;;18.80;99.90;;;;;;5061582;28;20197;-61
2023/07/23 00:53:43;;;;;;;6.00;3.30;;;18.70;99.90;;;;;;5066163;28;20221;-61
2023/07/23 00:56:10;;;;;;;5.93;3.58;;;18.60;99.90;;;;;;5071160;28;20283;-61
2023/07/23 00:58:38;;;;;;;10.90;3.30;;;18.60;99.90;;;;;;5069045;28;20629;-61
2023/07/23 01:01:08;;;;;;;10.73;3.45;;;18.50;99.90;;;;;;5062599;28;20259;-60
2023/07/23 01:03:37;;;;;;;3.78;2.85;;;18.50;99.90;;;;;;5059124;28;20221;-61
2023/07/23 01:06:05;;;;;;;4.60;2.83;;;18.50;99.90;;;;;;5067949;28;20561;-61
2023/07/23 01:08:33;;;;;;;9.82;3.20;;;18.40;99.90;;;;;;5058243;28;20300;-61
2023/07/23 01:11:01;;;;;;;10.50;3.05;;;18.40;99.90;;;;;;5070603;28;20197;-61
2023/07/23 01:13:29;;;;;;;6.00;2.78;;;18.40;99.90;;;;;;5063313;28;20228;-61
2023/07/23 01:15:58;;;;;;;8.93;3.00;;;18.30;99.90;;;;;;5062490;28;20233;-61
2023/07/23 01:18:26;;;;;;;6.03;3.33;;;18.30;99.90;;;;;;5070822;28;20783;-60
2023/07/23 01:20:56;;;;;;;5.50;3.25;;;18.20;99.90;;;;;;5071139;28;20197;-61
2023/07/23 01:23:25;;;;;;;7.45;3.13;;;18.20;99.90;;;;;;5062431;28;20311;-61
2023/07/23 01:25:53;;;;;;;6.10;3.30;;;18.20;99.90;;;;;;5062668;28;20701;-60
2023/07/23 01:28:21;;;;;;;3.35;2.63;;;18.10;99.90;;;;;;5069995;28;20668;-61
2023/07/23 01:30:49;;;;;;;2.63;2.50;;;18.10;99.90;;;;;;5059877;28;20287;-61
2023/07/23 01:33:17;;;;;;;4.68;3.00;;;18.10;99.90;;;;;;5071904;28;20264;-60
2023/07/23 01:35:45;;;;;;;5.68;3.50;;;18.00;99.90;;;;;;5062809;28;20297;-61
2023/07/23 01:38:14;;;;;;;7.10;3.08;;;18.00;99.90;;;;;;5068921;28;20201;-61
2023/07/23 01:40:43;;;;;;;3.42;3.13;;;17.90;99.90;;;;;;5057768;28;20297;-61
2023/07/23 01:43:11;;;;;;;8.38;3.22;;;17.90;99.90;;;;;;5067193;28;20225;-61
2023/07/23 01:45:42;;;;;;;3.53;3.10;;;18.00;99.90;;;;;;5064013;28;20288;-60
2023/07/23 01:48:10;;;;;;;3.42;2.90;;;17.90;99.90;;;;;;5059703;28;20249;-61
2023/07/23 01:50:38;;;;;;;5.50;2.67;;;17.90;99.90;;;;;;5071018;28;20247;-61
2023/07/23 01:53:06;;;;;;;5.53;2.97;;;17.90;99.90;;;;;;5059379;28;20618;-60
2023/07/23 01:55:34;;;;;;;5.50;3.33;;;17.80;99.90;;;;;;5064847;28;20297;-61
2023/07/23 01:58:03;;;;;;;5.88;2.80;;;17.80;99.90;;;;;;5066975;28;20654;-61
2023/07/23 02:00:31;;;;;;;8.80;3.55;;;17.80;99.90;;;;;;5073626;28;20790;-60
2023/07/23 02:02:59;;;;;;;3.42;2.80;;;17.70;99.90;;;;;;5058098;28;20570;-60
2023/07/23 02:05:27;;;;;;;4.90;3.30;;;17.70;99.90;;;;;;5065754;28;20209;-61
2023/07/23 02:07:55;;;;;;;5.60;3.58;;;17.70;99.90;;;;;;5065574;28;20658;-61
2023/07/23 02:10:23;;;;;;;5.78;3.50;;;17.60;99.90;;;;;;5058111;28;20292;-62
2023/07/23 02:12:51;;;;;;;4.15;3.35;;;17.60;99.90;;;;;;5070240;28;20217;-61
2023/07/23 02:15:20;;;;;;;7.25;3.92;;;17.60;99.90;;;;;;5060446;28;20201;-61
2023/07/23 02:17:48;;;;;;;5.80;3.58;;;17.60;99.90;;;;;;5062901;28;20285;-61
2023/07/23 02:20:16;;;;;;;4.40;3.20;;;17.60;99.90;;;;;;5073983;28;20208;-61
2023/07/23 02:22:45;;;;;;;8.77;3.03;;;17.50;99.90;;;;;;5056973;28;20291;-61
2023/07/23 02:25:13;;;;;;;4.88;2.90;;;17.50;99.90;;;;;;5067055;28;20210;-61
2023/07/23 02:27:40;;;;;;;8.10;3.15;;;17.50;99.90;;;;;;5063261;28;20676;-61
2023/07/23 02:30:10;;;;;;;6.78;3.53;;;17.50;99.90;;;;;;5059686;28;20261;-61
2023/07/23 02:32:39;;;;;;;6.72;3.45;;;17.50;99.90;;;;;;5078848;22;20229;-75
2023/07/23 02:35:08;;;;;;;2.83;2.65;;;17.40;99.90;;;;;;5058234;28;20209;-75
2023/07/23 02:37:35;;;;;;;6.03;3.20;;;17.40;99.90;;;;;;5063608;28;20240;-75
2023/07/23 02:40:04;;;;;;;4.55;3.22;;;17.40;99.90;;;;;;5066252;28;20201;-75
2023/07/23 02:42:32;;;;;;;3.78;3.38;;;17.40;99.90;;;;;;5056016;28;20253;-75
2023/07/23 02:45:00;;;;;;;4.28;3.28;;;17.30;99.90;;;;;;5068480;28;20287;-74
2023/07/23 02:47:28;;;;;;;3.80;3.35;;;17.30;99.90;;;;;;5061301;28;20200;-74
2023/07/23 02:49:57;;;;;;;6.65;3.28;;;17.30;99.90;;;;;;5060937;28;20344;-74
2023/07/23 02:52:25;;;;;;;8.95;3.42;;;17.30;99.90;;;;;;5070170;28;20225;-74
2023/07/23 02:54:53;;;;;;;4.05;2.95;;;17.20;99.90;;;;;;5069022;28;20201;-74
2023/07/23 02:57:21;;;;;;;5.68;3.33;;;17.20;99.90;;;;;;5060466;28;20625;-74
2023/07/23 02:59:49;;;;;;;4.80;3.60;;;17.20;99.90;;;;;;5071969;28;20205;-74
2023/07/23 03:02:18;;;;;;;4.05;3.67;;;17.20;99.90;;;;;;5058051;28;20283;-74
2023/07/23 03:04:46;;;;;;;4.00;3.67;;;17.10;99.90;;;;;;5069566;28;20197;-74
2023/07/23 03:07:15;;;;;;;3.78;3.45;;;17.10;99.90;;;;;;5058531;28;20233;-74
2023/07/23 03:09:43;;;;;;;4.75;3.42;;;17.00;99.90;;;;;;5062471;28;20225;-74
2023/07/23 03:12:11;;;;;;;4.65;3.58;;;16.90;99.90;;;;;;5066974;28;20687;-74
2023/07/23 03:14:39;;;;;;;4.20;3.80;;;16.90;99.90;;;;;;5056248;28;20210;-74
2023/07/23 03:17:07;;;;;;;3.95;3.42;;;16.90;99.90;;;;;;5067214;28;20233;-74
2023/07/23 03:19:34;;;;;;;7.72;4.30;;;16.80;99.90;;;;;;5061992;28;20235;-74
2023/07/23 03:22:02;;;;;;;3.50;3.13;;;16.80;99.90;;;;;;5059403;28;20221;-74
2023/07/23 03:24:32;;;;;;;7.80;3.72;;;16.70;99.90;;;;;;5069168;28;20666;-74
2023/07/23 03:27:00;;;;;;;6.93;3.75;;;16.70;99.90;;;;;;5056877;28;20204;-74
2023/07/23 03:29:27;;;;;;;4.15;3.75;;;16.60;99.90;;;;;;5064250;28;20222;-74
2023/07/23 03:31:55;;;;;;;7.57;3.53;;;16.60;99.90;;;;;;5063094;28;20278;-74
2023/07/23 03:34:23;;;;;;;4.97;3.25;;;16.60;99.90;;;;;;5065801;28;20217;-74
2023/07/23 03:36:52;;;;;;;5.07;3.50;;;16.50;99.90;;;;;;5065851;28;20550;-74
2023/07/23 03:39:19;;;;;;;3.97;3.55;;;16.50;99.90;;;;;;5065102;28;20252;-74
2023/07/23 03:41:49;;;;;;;8.07;3.63;;;16.40;99.90;;;;;;5063352;28;20225;-74
2023/07/23 03:44:17;;;;;;;8.63;4.40;;;16.40;99.90;;;;;;5057318;28;20205;-74
2023/07/23 03:46:45;;;;;;;6.90;3.72;;;16.40;99.90;;;;;;5070590;28;20205;-74
2023/07/23 03:49:13;;;;;;;11.10;4.47;;;16.40;99.90;;;;;;5065921;28;20213;-74
2023/07/23 03:51:41;;;;;;;3.97;3.58;;;16.40;99.90;;;;;;5061995;28;20779;-74
2023/07/23 03:54:09;;;;;;;4.82;4.07;;;16.30;99.90;;;;;;5058117;28;20201;-74
2023/07/23 03:56:37;;;;;;;7.05;4.03;;;16.30;99.90;;;;;;5068262;28;20244;-74
2023/07/23 03:59:06;;;;;;;6.35;3.88;;;16.30;99.90;;;;;;5051799;28;20645;-74
2023/07/23 04:01:34;;;;;;;8.90;4.03;;;16.20;99.90;;;;;;5060503;28;20786;-74
2023/07/23 04:04:02;;;;;;;6.40;4.70;;;16.20;99.90;;;;;;5058656;28;20202;-74
2023/07/23 04:06:30;;;;;;;4.55;4.07;;;16.20;99.90;;;;;;5051167;28;20210;-74
2023/07/23 04:08:58;;;;;;;6.68;3.78;;;16.10;99.90;;;;;;5067435;28;20231;-74
2023/07/23 04:11:25;;;;;;;4.65;3.38;;;16.10;99.90;;;;;;5051846;28;20225;-74
2023/07/23 04:13:54;;;;;;;4.18;3.80;;;16.10;99.90;;;;;;5063541;28;20201;-74
2023/07/23 04:16:23;;;;;;;4.88;3.95;;;16.10;99.90;;;;;;5055579;28;20249;-74
2023/07/23 04:18:53;;;;;;;5.57;4.07;;;16.10;99.90;;;;;;5068389;28;20556;-74
2023/07/23 04:21:22;;;;;;;7.07;3.97;;;16.10;99.90;;;;;;5059059;28;20271;-74
2023/07/23 04:23:50;;;;;;;4.93;4.38;;;16.20;99.90;;;;;;5060694;28;20343;-74
2023/07/23 04:26:19;;;;;;;4.35;3.95;;;16.10;99.90;;;;;;5066659;28;20237;-74
2023/07/23 04:28:47;;;;;;;5.85;4.00;;;16.10;99.90;;;;;;5052159;28;20255;-74
2023/07/23 04:31:14;;;;;;;7.68;4.45;;;16.10;99.90;;;;;;5057836;28;20671;-74
2023/07/23 04:33:44;;;;;;;5.68;4.20;;;16.10;99.90;;;;;;5061047;28;20625;-74
2023/07/23 04:36:12;;;;;;;5.00;4.05;;;16.10;99.90;;;;;;5065688;28;20200;-74
2023/07/23 04:38:40;;;;;;;6.25;3.95;;;16.10;99.90;;;;;;5054651;28;20205;-74
2023/07/23 04:41:08;;;;;;;7.65;3.63;;;16.10;99.90;;;;;;5065567;28;20656;-74
2023/07/23 04:43:37;;;;;;;3.92;3.63;;;16.20;99.90;;;;;;5061090;28;20255;-74
2023/07/23 04:46:05;;;;;;;5.75;3.78;;;16.20;99.90;;;;;;5057945;28;20291;-74
2023/07/23 04:48:33;;;;;;;8.23;4.18;;;16.20;99.90;;;;;;5067750;28;20193;-74
2023/07/23 04:51:03;;;;;;;4.13;3.38;;;16.30;99.90;;;;;;5055987;28;20240;-74
2023/07/23 04:53:31;;;;;;;4.55;4.15;;;16.30;99.90;;;;;;5062169;28;20241;-74
2023/07/23 04:56:00;;;;;;;6.82;3.72;;;16.40;99.90;;;;;;5063522;28;20209;-74
2023/07/23 04:58:28;;;;;;;5.85;3.50;;;16.40;99.90;;;;;;5070015;28;20204;-74
2023/07/23 05:00:56;;;;;;;5.80;3.75;;;16.50;99.90;;;;;;5067295;28;20279;-74
2023/07/23 05:03:24;;;;;;;4.13;3.50;;;16.60;99.90;;;;;;5058705;28;20205;-74
2023/07/23 05:05:54;;;;;;;5.07;3.83;;;16.70;99.90;;;;;;5059493;28;20289;-74
2023/07/23 05:08:24;;;;;;;6.95;3.75;;;16.80;99.90;;;;;;5050946;28;20205;-74
2023/07/23 05:10:51;;;;;;;3.75;3.40;;;16.80;99.90;;;;;;5067731;28;20245;-74
2023/07/23 05:13:19;;;;;;;6.30;4.10;;;16.90;99.90;;;;;;5058040;28;20679;-74
2023/07/23 05:15:47;;;;;;;10.00;4.55;;;17.00;99.90;;;;;;5059640;28;20198;-74
2023/07/23 05:18:15;;;;;;;6.40;4.13;;;17.10;99.90;;;;;;5068067;28;20209;-74
2023/07/23 05:20:43;;;;;;;4.95;4.28;;;17.10;99.90;;;;;;5056770;28;20285;-74
2023/07/23 05:23:11;;;;;;;7.90;3.88;;;17.20;99.90;;;;;;5062075;28;20220;-74
2023/07/23 05:25:40;;;;;;;5.03;3.83;;;17.20;99.90;;;;;;5058522;28;20201;-74
2023/07/23 05:28:08;;;;;;;4.53;3.90;;;17.30;99.90;;;;;;5060616;28;20213;-74
2023/07/23 05:30:36;;;;;;;5.88;3.63;;;17.30;99.90;;;;;;5070609;28;20257;-74
2023/07/23 05:33:03;;;;;;;5.05;4.15;;;17.30;99.90;;;;;;5061489;28;20232;-74
2023/07/23 05:35:35;;;;;;;3.70;3.40;;;17.40;99.90;;;;;;5065469;28;20263;-74
2023/07/23 05:38:03;;;;;;;4.30;3.90;;;17.50;99.90;;;;;;5067596;28;20662;-74
2023/07/23 05:40:35;;;;;;;8.25;3.90;;;17.50;99.90;;;;;;5058447;28;20259;-74
2023/07/23 05:43:09;;;;;;;4.93;3.75;;;17.50;99.90;;;;;;5069686;28;20194;-74
2023/07/23 05:45:37;;;;;;;5.82;4.00;;;17.60;99.90;;;;;;5063847;28;20274;-74
2023/07/23 05:48:06;;;;;;;5.75;4.20;;;17.70;99.90;;;;;;5060954;28;20308;-74
2023/07/23 05:50:33;;;;;;;5.20;4.13;;;17.80;99.90;;;;;;5071082;28;20229;-74
2023/07/23 05:53:01;;;;;;;7.03;3.80;;;17.90;99.90;;;;;;5058848;28;20288;-75
2023/07/23 05:55:29;;;;;;;6.30;4.30;;;18.00;99.90;;;;;;5065686;28;20236;-74
2023/07/23 05:57:57;;;;;;;4.28;3.85;;;18.00;99.90;;;;;;5066853;28;20201;-74
2023/07/23 06:00:26;;;;;;;8.90;3.67;;;18.10;99.90;;;;;;5069658;28;20208;-73
2023/07/23 06:02:55;;;;;;;3.92;3.55;;;18.10;99.90;;;;;;5065431;28;20197;-72
2023/07/23 06:05:23;;;;;;;5.43;4.15;;;18.20;99.90;;;;;;5064924;28;20288;-73
2023/07/23 06:07:51;;;;;;;4.40;3.63;;;18.30;99.90;;;;;;5073606;28;20646;-73
2023/07/23 06:10:19;;;;;;;6.38;3.95;;;18.50;99.90;;;;;;5058011;28;20739;-73
2023/07/23 06:12:46;;;;;;;5.32;3.53;;;18.60;99.90;;;;;;5060672;28;20998;-73
2023/07/23 06:15:15;;;;;;;3.97;3.50;;;18.70;99.90;;;;;;5068940;28;20201;-73
2023/07/23 06:17:44;;;;;;;5.05;3.40;;;18.80;99.90;;;;;;5062839;28;20197;-72
2023/07/23 06:20:12;;;;;;;5.55;2.97;;;18.80;99.90;;;;;;5068066;28;20201;-72
2023/07/23 06:22:40;;;;;;;3.10;2.90;;;18.90;99.90;;;;;;5056817;28;20261;-72
2023/07/23 06:25:09;;;;;;;3.90;2.75;;;19.10;99.90;;;;;;5067647;28;20240;-72
2023/07/23 06:27:37;;;;;;;3.10;2.63;;;19.40;99.90;;;;;;5062649;28;20576;-72
2023/07/23 06:30:06;;;;;;;4.75;3.13;;;19.80;99.90;;;;;;5059893;28;20190;-72
2023/07/23 06:32:34;;;;;;;3.00;2.80;;;20.10;99.90;;;;;;5069269;28;20301;-72
2023/07/23 06:35:05;;;;;;;7.40;2.88;;;20.30;99.90;;;;;;5057596;28;20232;-72
2023/07/23 06:37:33;;;;;;;6.35;3.10;;;20.60;99.90;;;;;;5064252;28;20205;-72
2023/07/23 06:40:00;;;;;;;4.03;2.53;;;20.70;99.90;;;;;;5065853;28;20663;-72
2023/07/23 06:42:28;;;;;;;4.63;2.97;;;20.80;99.90;;;;;;5056143;28;20217;-72
2023/07/23 06:44:57;;;;;;;3.72;2.83;;;20.90;99.90;;;;;;5068928;28;20280;-72
2023/07/23 06:47:24;;;;;;;4.78;2.90;;;21.00;99.90;;;;;;5060660;28;20764;-72
2023/07/23 06:49:52;;;;;;;5.80;2.55;;;21.10;99.90;;;;;;5061302;28;20219;-72
2023/07/23 06:52:21;;;;;;;4.97;2.95;;;21.10;99.90;;;;;;5067852;28;20311;-72
2023/07/23 06:54:49;;;;;;;3.08;2.70;;;21.20;99.90;;;;;;5056244;28;20228;-72
2023/07/23 06:57:17;;;;;;;2.90;2.25;;;21.30;99.90;;;;;;5065938;28;20240;-72
2023/07/23 06:59:46;;;;;;;3.97;2.60;;;21.50;99.90;;;;;;5053405;28;20262;-72
2023/07/23 07:02:14;;;;;;;5.53;2.50;;;21.60;99.90;;;;;;5067462;28;20213;-72
2023/07/23 07:04:42;;;;;;;6.70;2.35;;;21.70;99.90;;;;;;5055756;28;20618;-72
2023/07/23 07:07:10;;;;;;;3.92;2.05;;;21.90;99.90;;;;;;5066922;28;20243;-72
2023/07/23 07:09:39;;;;;;;7.82;2.50;;;21.90;99.90;;;;;;5062388;28;20200;-72
2023/07/23 07:12:08;;;;;;;2.20;1.92;;;22.00;99.90;;;;;;5058700;28;20282;-72
2023/07/23 07:14:36;;;;;;;6.25;2.00;;;22.00;99.90;;;;;;5068757;28;20201;-72
2023/07/23 07:17:04;;;;;;;4.43;2.15;;;22.00;99.90;;;;;;5057432;28;20236;-72
2023/07/23 07:19:33;;;;;;;4.07;2.47;;;22.10;99.90;;;;;;5063321;28;20750;-72
2023/07/23 07:22:01;;;;;;;8.38;2.17;;;22.00;99.90;;;;;;5064953;28;20629;-72
2023/07/23 07:24:29;;;;;;;3.63;2.05;;;22.00;99.90;;;;;;5055591;28;20625;-72
2023/07/23 07:26:58;;;;;;;2.05;1.95;;;21.90;99.90;;;;;;5067828;28;20201;-72
2023/07/23 07:29:26;;;;;;;1.90;1.80;;;21.90;99.90;;;;;;5060317;28;20291;-72
2023/07/23 07:31:54;;;;;;;3.92;1.70;;;21.90;99.90;;;;;;5059167;28;20225;-72
2023/07/23 07:34:22;;;;;;;1.58;1.52;;;21.80;99.90;;;;;;5066911;28;20589;-72
2023/07/23 07:36:50;;;;;;;2.35;1.67;;;21.80;99.90;;;;;;5055409;28;20201;-72
2023/07/23 07:39:18;;;;;;;2.97;1.67;;;21.80;99.90;;;;;;5065275;28;20638;-72
2023/07/23 07:41:46;;;;;;;2.88;1.73;;;21.80;99.90;;;;;;5061624;28;20299;-72
2023/07/23 07:44:15;;;;;;;2.42;1.83;;;21.70;99.90;;;;;;5057433;28;20253;-72
2023/07/23 07:46:43;;;;;;;2.63;1.80;;;21.70;99.90;;;;;;5068200;28;20208;-72
2023/07/23 07:49:11;;;;;;;1.67;1.67;;;21.70;99.90;;;;;;5057932;28;20322;-72
2023/07/23 07:51:43;;;;;;;1.77;1.50;;;21.70;99.90;;;;;;5061934;28;20225;-72
2023/07/23 07:54:10;;;;;;;4.35;2.15;;;21.70;99.90;;;;;;5066000;28;20270;-72
2023/07/23 07:56:39;;;;;;;3.35;2.03;;;21.70;99.90;;;;;;5057196;28;20295;-73
2023/07/23 07:59:08;;;;;;;1.65;1.50;;;21.70;99.90;;;;;;5064864;28;20246;-73
2023/07/23 08:01:37;;;;;;;2.75;1.60;;;21.70;99.90;;;;;;5061244;28;20245;-73
2023/07/23 08:04:07;;;;;;;1.70;1.60;;;21.60;99.90;;;;;;5063796;28;20258;-73
2023/07/23 08:06:35;;;;;;;3.83;1.70;;;21.50;99.90;;;;;;5062995;28;20700;-73
2023/07/23 08:09:04;;;;;;;1.90;1.33;;;21.40;99.90;;;;;;5066790;28;20193;-73
2023/07/23 08:11:32;;;;;;;1.95;1.70;;;21.40;99.90;;;;;;5060206;28;20307;-73
2023/07/23 08:14:00;;;;;;;6.93;1.98;;;21.40;99.90;;;;;;5058601;28;20243;-73
2023/07/23 08:16:28;;;;;;;1.80;1.48;;;21.40;99.90;;;;;;5067927;28;20242;-73
2023/07/23 08:18:58;;;;;;;1.65;1.55;;;21.50;99.90;;;;;;5039301;28;20228;-73
2023/07/23 08:21:26;;;;;;;4.70;1.70;;;21.50;99.90;;;;;;5063525;28;20230;-73
2023/07/23 08:23:55;;;;;;;1.73;1.63;;;21.40;99.90;;;;;;5063162;28;20288;-73
2023/07/23 08:26:23;;;;;;;1.67;1.40;;;21.40;99.90;;;;;;5055310;28;20248;-73
2023/07/23 08:28:52;;;;;;;2.67;1.80;;;21.50;99.90;;;;;;5067828;28;20748;-73
2023/07/23 08:31:20;;;;;;;2.03;1.52;;;21.60;99.90;;;;;;5058199;28;20232;-73
2023/07/23 08:33:49;;;;;;;1.98;1.45;;;21.60;99.90;;;;;;5059860;28;20249;-73
2023/07/23 08:36:18;;;;;;;3.45;1.90;;;21.70;99.90;;;;;;5066509;28;20192;-74
2023/07/23 08:38:47;;;;;;;3.47;1.42;;;21.70;99.90;;;;;;5052660;28;20263;-73
2023/07/23 08:41:22;;;;;;;1.30;1.20;;;21.70;99.90;;;;;;5065221;28;20221;-73
2023/07/23 08:44:11;;;;;;;3.72;1.42;;;21.80;99.90;;;;;;5062742;28;20283;-73
2023/07/23 08:46:43;;;;;;;3.42;1.40;;;21.80;99.90;;;;;;5054461;28;20209;-73
2023/07/23 08:49:11;;;;;;;1.88;1.02;;;21.80;99.90;;;;;;5065399;28;20608;-74
2023/07/23 08:51:44;;;;;;;1.10;1.10;;;21.90;99.90;;;;;;5069591;22;20249;-56
2023/07/23 08:54:12;;;;;;;2.03;1.38;;;21.90;99.90;;;;;;5068890;28;20296;-56
2023/07/23 08:56:41;;;;;;;2.47;1.60;;;21.90;99.90;;;;;;5058461;28;20240;-56
2023/07/23 08:59:12;;;;;;;1.65;1.23;;;22.00;99.90;;;;;;5073801;28;20576;-57
2023/07/23 09:01:41;;;;;;;2.10;1.15;;;22.00;99.90;;;;;;5064789;28;20711;-57
2023/07/23 09:04:11;;;;;;;2.40;1.10;;;22.00;99.90;;;;;;5067563;28;20220;-56
2023/07/23 09:06:41;;;;;;;1.25;1.25;;;22.10;99.90;;;;;;5058348;28;20251;-55
2023/07/23 09:09:11;;;;;;;4.65;1.10;;;22.10;99.90;;;;;;5069220;28;20228;-57
2023/07/23 09:11:39;;;;;;;3.15;1.23;;;22.20;99.90;;;;;;5064778;28;20695;-55
2023/07/23 09:14:07;;;;;;;1.10;1.10;;;22.30;99.90;;;;;;5060968;28;20248;-55
2023/07/23 09:16:36;;;;;;;1.83;1.35;;;22.50;99.90;;;;;;5071340;28;20196;-56
2023/07/23 09:19:04;;;;;;;1.30;1.02;;;22.60;99.90;;;;;;5059812;28;20223;-58
2023/07/23 09:21:32;;;;;;;2.22;1.40;;;22.70;99.90;;;;;;5066025;28;20776;-56
2023/07/23 09:24:02;;;;;;;1.38;1.30;;;22.80;99.90;;;;;;5067247;28;20308;-57
2023/07/23 09:26:31;;;;;;;1.05;1.00;;;22.90;99.90;;;;;;5057803;28;20299;-56
2023/07/23 09:29:00;;;;;;;2.00;1.20;;;22.90;99.90;;;;;;5070410;28;20205;-55
2023/07/23 09:31:29;;;;;;;1.10;1.10;;;22.90;99.90;;;;;;5062894;28;20639;-55
2023/07/23 09:34:00;;;;;;;1.35;1.10;;;22.90;99.90;;;;;;5062068;28;20229;-55
2023/07/23 09:36:28;;;;;;;1.10;0.90;;;22.90;99.90;;;;;;5070831;28;20204;-56
2023/07/23 09:38:57;;;;;;;2.42;0.90;;;22.70;99.90;;;;;;5058126;28;20279;-55
2023/07/23 09:41:28;;;;;;;1.70;0.90;;;22.60;99.90;;;;;;5066692;28;20210;-55
2023/07/23 09:44:02;;;;;;;5.50;1.30;;;22.60;99.90;;;;;;5066346;28;20220;-55
2023/07/23 09:46:31;;;;;;;1.15;1.15;;;22.50;99.90;;;;;;5057564;28;20619;-55
2023/07/23 09:48:59;;;;;;;1.40;1.10;;;22.50;99.90;;;;;;5070031;28;20216;-55
2023/07/23 09:51:27;;;;;;;1.00;1.00;;;22.60;99.90;;;;;;5062263;28;20643;-55
2023/07/23 09:53:55;;;;;;;0.82;0.82;;;22.60;99.90;;;;;;5061979;28;20233;-55
2023/07/23 09:56:23;;;;;;;1.30;0.90;;;22.50;99.90;;;;;;5070181;28;20229;-55
2023/07/23 09:58:52;;;;;;;1.55;1.05;;;22.50;99.90;;;;;;5058675;28;20201;-55
2023/07/23 10:01:21;;;;;;;1.13;1.00;;;22.40;99.90;;;;;;5074234;28;20208;-55
2023/07/23 10:03:49;;;;;;;1.25;1.17;;;22.40;99.90;;;;;;5061752;28;20217;-55
2023/07/23 10:06:20;;;;;;;1.10;1.10;;;22.30;99.90;;;;;;5068857;28;20205;-55
2023/07/23 10:08:49;;;;;;;2.45;1.00;;;22.30;99.90;;;;;;5057362;28;20259;-56
2023/07/23 10:11:18;;;;;;;1.38;0.90;;;22.20;99.90;;;;;;5067207;28;20256;-55
2023/07/23 10:13:47;;;;;;;0.90;0.90;;;22.30;99.90;;;;;;5064364;28;20705;-56
2023/07/23 10:16:18;;;;;;;1.20;1.10;;;22.40;99.90;;;;;;5058860;28;20205;-55
2023/07/23 10:18:48;;;;;;;0.85;0.85;;;22.60;99.90;;;;;;5070061;28;20215;-56
2023/07/23 10:21:16;;;;;;;1.95;0.90;;;22.60;99.90;;;;;;5060390;28;20203;-58
2023/07/23 10:23:44;;;;;;;0.85;0.85;;;22.90;99.90;;;;;;5062982;28;20213;-55
2023/07/23 10:26:19;;;;;;;1.02;1.00;;;23.10;99.90;;;;;;5067841;28;20204;-55
2023/07/23 10:28:48;;;;;;;1.00;1.00;;;23.30;99.90;;;;;;5056777;28;20227;-55
2023/07/23 10:31:19;;;;;;;0.88;0.88;;;23.60;99.90;;;;;;5066872;28;20248;-55
2023/07/23 10:33:50;;;;;;;1.00;1.00;;;24.00;99.90;;;;;;5064363;28;20605;-55
2023/07/23 10:36:18;;;;;;;1.35;0.93;;;24.30;99.90;;;;;;5058224;28;20272;-56
2023/07/23 10:38:47;;;;;;;2.35;1.00;;;24.60;99.90;;;;;;5069707;28;20240;-56
2023/07/23 10:41:15;;;;;;;1.02;1.02;;;24.70;99.90;;;;;;5059835;28;20205;-55
2023/07/23 10:43:44;;;;;;;1.98;0.93;;;24.70;99.90;;;;;;5062614;28;20274;-55
2023/07/23 10:46:13;;;;;;;0.93;0.93;;;25.00;99.90;;;;;;5067376;28;20251;-55
2023/07/23 10:48:42;;;;;;;2.00;1.20;;;25.20;99.90;;;;;;5056532;28;20445;-56
2023/07/23 10:51:12;;;;;;;1.58;1.13;;;25.50;99.90;;;;;;5067213;28;20255;-55
2023/07/23 10:53:41;;;;;;;1.10;0.90;;;25.90;99.90;;;;;;5062649;28;20256;-57
2023/07/23 10:56:26;;;;;;;1.95;0.98;;;26.10;99.90;;;;;;5058766;28;20201;-56
2023/07/23 10:58:58;;;;;;;1.10;1.05;;;26.40;99.90;;;;;;5042169;28;20200;-57
2023/07/23 11:01:27;;;;;;;0.88;0.88;;;26.60;99.90;;;;;;5065077;28;20212;-55
2023/07/23 11:03:58;;;;;;;1.40;1.10;;;26.60;99.90;;;;;;5064755;28;20314;-57
2023/07/23 11:06:31;;;;;;;2.20;0.95;;;26.70;99.90;;;;;;5056310;28;20667;-55
2023/07/23 11:09:04;;;;;;;1.42;1.02;;;27.00;99.90;;;;;;5041485;28;20205;-55
2023/07/23 11:11:36;;;;;;;1.00;1.00;;;27.00;99.90;;;;;;5064153;28;20250;-58
2023/07/23 11:14:18;;;;;;;1.00;1.00;;;27.10;99.90;;;;;;5065851;28;20278;-55
2023/07/23 11:16:47;;;;;;;1.25;1.25;;;26.90;99.90;;;;;;5055728;28;20215;-58
2023/07/23 11:19:15;;;;;;;1.20;1.20;;;26.70;99.90;;;;;;5066076;28;20190;-56
2023/07/23 11:21:49;;;;;;;1.10;1.10;;;26.60;99.90;;;;;;5062798;28;20243;-56
2023/07/23 11:24:17;;;;;;;1.45;1.33;;;26.60;99.90;;;;;;5056980;28;20299;-57
2023/07/23 11:26:45;;;;;;;7.05;1.13;;;26.50;99.90;;;;;;5067493;28;20216;-56
2023/07/23 11:29:13;;;;;;;1.15;1.05;;;26.40;99.90;;;;;;5044727;28;20745;-55
2023/07/23 11:31:41;;;;;;;5.90;1.45;;;26.50;99.90;;;;;;5062024;28;20228;-56
2023/07/23 11:34:09;;;;;;;2.88;1.30;;;26.40;99.90;;;;;;5065733;28;20228;-55
2023/07/23 11:36:38;;;;;;;1.83;1.30;;;26.20;99.90;;;;;;5055282;28;20259;-56
2023/07/23 11:39:10;;;;;;;2.05;1.17;;;26.10;99.90;;;;;;5066324;28;20228;-57
2023/07/23 11:41:39;;;;;;;1.38;1.27;;;25.90;99.90;;;;;;5060721;28;20239;-56
2023/07/23 11:44:07;;;;;;;3.22;1.30;;;25.80;99.90;;;;;;5057249;28;20257;-55
2023/07/23 11:46:36;;;;;;;3.67;1.33;;;25.80;99.90;;;;;;5068334;28;20665;-56
2023/07/23 11:49:06;;;;;;;1.23;1.23;;;25.70;99.90;;;;;;5057038;28;20205;-55
2023/07/23 11:51:34;;;;;;;2.25;1.40;;;25.70;99.90;;;;;;5062940;28;20213;-55
2023/07/23 11:54:04;;;;;;;3.38;1.27;;;25.70;99.90;;;;;;5064722;28;20221;-56
2023/07/23 11:56:35;;;;;;;1.25;1.23;;;25.60;99.90;;;;;;5054968;28;20204;-56
2023/07/23 11:59:04;;;;;;;1.27;1.27;;;25.60;99.90;;;;;;5071702;28;20612;-57
2023/07/23 12:01:31;;;;;;;3.03;1.40;;;25.80;99.90;;;;;;5063082;28;20237;-57
2023/07/23 12:04:03;;;;;;;1.23;1.23;;;26.00;99.90;;;;;;5064036;28;20254;-55
2023/07/23 12:06:32;;;;;;;2.95;1.50;;;26.10;99.90;;;;;;5054633;28;20782;-57
2023/07/23 12:08:59;;;;;;;2.15;1.88;;;26.00;99.10;;;;;;5066888;28;20700;-58
2023/07/23 12:11:29;;;;;;;6.43;2.03;;;26.00;98.20;;;;;;5059990;28;20228;-55
2023/07/23 12:13:59;;;;;;;2.88;1.90;;;25.90;97.80;;;;;;5058960;28;20221;-55
2023/07/23 12:16:38;;;;;;;2.35;2.00;;;25.90;97.20;;;;;;5067778;28;20656;-56
2023/07/23 12:19:07;;;;;;;2.55;2.10;;;25.90;97.20;;;;;;5042036;28;20683;-56
2023/07/23 12:21:36;;;;;;;2.05;1.95;;;25.90;97.40;;;;;;5062354;28;20658;-56
2023/07/23 12:24:14;;;;;;;6.25;1.83;;;25.90;96.90;;;;;;5064777;28;20278;-57
2023/07/23 12:26:42;;;;;;;6.20;1.85;;;25.80;97.00;;;;;;5054503;28;20209;-56
2023/07/23 12:29:12;;;;;;;1.95;1.50;;;25.80;96.30;;;;;;5065668;28;20555;-56
2023/07/23 12:31:41;;;;;;;5.75;2.00;;;25.80;96.90;;;;;;5061443;28;20258;-56
2023/07/23 12:34:09;;;;;;;1.90;1.80;;;25.80;96.30;;;;;;5056839;28;20257;-56
2023/07/23 12:36:37;;;;;;;7.85;1.83;;;25.80;96.30;;;;;;5067883;28;20204;-55
2023/07/23 12:39:05;;;;;;;3.08;2.00;;;25.80;97.40;;;;;;5056363;28;20197;-55
2023/07/23 12:41:33;;;;;;;2.20;2.10;;;25.90;97.00;;;;;;5062838;28;20212;-57
2023/07/23 12:44:02;;;;;;;3.53;1.90;;;26.00;96.90;;;;;;5064220;28;20212;-55
2023/07/23 12:46:31;;;;;;;2.17;2.08;;;26.00;97.10;;;;;;5054652;28;20233;-56
2023/07/23 12:48:59;;;;;;;3.00;1.65;;;26.10;97.30;;;;;;5066993;28;20254;-56
2023/07/23 12:51:27;;;;;;;3.88;2.05;;;26.10;97.20;;;;;;5059597;28;20243;-57
2023/07/23 12:53:55;;;;;;;2.50;1.98;;;26.10;97.20;;;;;;5058944;28;20221;-57